Time;durP1;ratioP1;P1;durP2;ratioP2;P2;SDS_P1;SDS_P2;PMS_P1;PMS_P2;Temp;Humidity;BMP_temperature;BMP_pressure;BME280_temperature;BME280_humidity;BME280_pressure;Samples;Min_cycle;Max_cycle;Signal;HPM_P1;HPM_P2
2021/01/01 05:10:06;;;;;;;;;;;;;;;;;;;;;
2021/01/01 05:21:58;;;;;;;17.95;13.73;;;6.40;99.90;;;;;;6011208;23;20180;-82
2021/01/01 05:25:50;;;;;;;19.35;13.13;;;6.40;99.90;;;;;;5909575;23;20152;-81
2021/01/01 05:28:47;;;;;;;20.85;15.82;;;6.40;99.90;;;;;;6039547;23;20147;-81
2021/01/01 05:32:52;;;;;;;21.48;14.38;;;6.40;99.90;;;;;;6009204;23;20210;-82
2021/01/01 05:37:21;;;;;;;;;;;;;;;;;;;;;
2021/01/01 05:45:59;;;;;;;;;;;;;;;;;;;;;
2021/01/01 05:50:07;;;;;;;14.95;13.23;;;6.30;99.90;;;;;;5826563;24;20186;-81
2021/01/01 08:05:31;;;;;;;20.50;14.32;;;6.40;99.90;;;;;;6006431;23;20172;-80
2021/01/01 08:08:26;;;;;;;20.30;15.23;;;6.40;99.90;;;;;;6004929;23;20174;-79
2021/01/01 08:11:14;;;;;;;18.45;15.60;;;6.40;99.90;;;;;;6034670;23;20197;-80
2021/01/01 08:14:01;;;;;;;18.83;15.27;;;6.40;99.90;;;;;;6114770;23;20174;-80
2021/01/01 08:16:57;;;;;;;22.83;17.00;;;6.40;99.90;;;;;;6094620;23;20183;-81
2021/01/01 08:19:31;;;;;;;22.08;17.00;;;6.40;99.90;;;;;;6094425;23;20239;-81
2021/01/01 08:22:34;;;;;;;25.55;18.60;;;6.50;99.90;;;;;;6094894;23;20148;-80
2021/01/01 08:25:09;;;;;;;24.38;20.88;;;6.50;99.90;;;;;;6096398;23;20156;-80
2021/01/01 08:27:50;;;;;;;26.08;20.00;;;6.50;99.90;;;;;;6094091;23;20170;-80
2021/01/01 08:30:25;;;;;;;23.20;18.60;;;6.50;99.90;;;;;;6102071;23;20140;-79
2021/01/01 08:32:57;;;;;;;21.38;17.05;;;6.50;99.90;;;;;;6098397;23;20132;-79
2021/01/01 08:35:45;;;;;;;22.67;19.55;;;6.50;99.90;;;;;;6096747;23;20142;-81
2021/01/01 08:38:39;;;;;;;27.35;21.95;;;6.60;99.90;;;;;;6095799;23;20152;-79
2021/01/01 08:41:25;;;;;;;29.77;19.85;;;6.60;99.90;;;;;;6095006;23;20238;-80
2021/01/01 08:44:26;;;;;;;28.00;21.63;;;6.70;99.90;;;;;;6097550;23;20180;-81
2021/01/01 08:47:05;;;;;;;24.52;19.67;;;6.70;99.90;;;;;;6067274;23;20258;-81
2021/01/01 08:49:46;;;;;;;27.05;20.52;;;6.80;99.90;;;;;;6095762;23;20480;-81
2021/01/01 08:52:32;;;;;;;23.05;19.42;;;6.90;99.90;;;;;;6099431;23;20188;-80
2021/01/01 08:55:23;;;;;;;27.10;22.38;;;6.90;99.90;;;;;;6098969;23;20132;-80
2021/01/01 09:00:06;;;;;;;;;;;;;;;;;;;;;
2021/01/01 09:02:25;;;;;;;25.15;18.85;;;7.10;99.90;;;;;;6094119;23;20174;-80
2021/01/01 09:05:04;;;;;;;24.58;18.85;;;7.30;99.90;;;;;;6097625;23;20155;-79
2021/01/01 09:07:42;;;;;;;23.00;19.17;;;7.30;99.90;;;;;;6124653;23;20175;-81
2021/01/01 09:10:29;;;;;;;26.40;20.65;;;7.40;99.90;;;;;;6105726;23;20139;-79
2021/01/01 09:44:38;;;;;;;25.52;20.27;;;7.60;99.90;;;;;;6094082;23;20778;-80
2021/01/01 09:48:13;;;;;;;25.75;20.65;;;7.60;99.90;;;;;;6059456;23;20148;-79
2021/01/01 09:51:08;;;;;;;21.25;18.52;;;7.60;99.90;;;;;;6035477;23;20259;-79
2021/01/01 09:53:59;;;;;;;26.88;18.92;;;7.60;99.90;;;;;;6062806;23;20157;-79
2021/01/01 09:57:10;;;;;;;26.75;19.55;;;7.60;99.90;;;;;;6063246;23;20168;-79
2021/01/01 10:00:26;;;;;;;;;;;;;;;;;;;;;
2021/01/01 10:03:36;;;;;;;21.45;17.85;;;7.60;99.90;;;;;;6062413;23;20208;-79
2021/01/01 10:06:37;;;;;;;21.67;16.70;;;7.60;99.90;;;;;;6080831;23;20215;-80
2021/01/01 10:13:09;;;;;;;25.83;17.88;;;7.70;99.90;;;;;;6064206;23;20223;-79
2021/01/01 10:16:39;;;;;;;;;;;;;;;;;;;;;
2021/01/01 10:19:42;;;;;;;22.17;17.60;;;7.70;99.90;;;;;;6064356;23;20575;-80
2021/01/01 10:22:58;;;;;;;;;;;;;;;;;;;;;
2021/01/01 10:26:08;;;;;;;21.00;16.45;;;7.80;99.90;;;;;;6062318;23;20565;-80
2021/01/01 10:30:11;;;;;;;;;;;;;;;;;;;;;
2021/01/01 10:33:01;;;;;;;20.92;17.30;;;7.80;99.90;;;;;;6064609;23;20133;-80
2021/01/01 10:44:04;;;;;;;;;;;;;;;;;;;;;
2021/01/01 10:47:15;;;;;;;23.95;17.55;;;7.90;99.90;;;;;;6065606;23;20179;-79
2021/01/01 10:50:43;;;;;;;19.45;16.02;;;7.90;99.90;;;;;;6008618;23;20169;-80
2021/01/01 10:57:50;;;;;;;22.10;18.50;;;7.90;99.90;;;;;;6034700;23;20179;-79
2021/01/01 11:04:01;;;;;;;25.00;18.50;;;7.90;99.90;;;;;;6064581;23;20188;-78
2021/01/01 11:06:54;;;;;;;22.98;17.40;;;7.90;99.90;;;;;;6004111;23;20177;-78
2021/01/01 11:15:00;;;;;;;24.13;18.58;;;7.90;99.90;;;;;;5979638;24;20162;-77
2021/01/01 12:27:08;;;;;;;;;;;;;;;;;;;;;
2021/01/01 12:37:18;;;;;;;24.20;16.80;;;10.20;99.90;;;;;;6078373;23;20737;-79
2021/01/01 12:44:11;;;;;;;21.45;16.02;;;10.20;99.90;;;;;;6152805;23;20514;-79
2021/01/01 12:46:49;;;;;;;21.15;15.35;;;10.20;99.90;;;;;;6134196;23;20528;-79
2021/01/01 12:49:49;;;;;;;22.52;16.00;;;10.20;99.90;;;;;;6121009;23;20226;-78
2021/01/01 12:52:55;;;;;;;20.55;15.15;;;10.20;99.90;;;;;;6113565;23;20161;-78
2021/01/01 12:55:23;;;;;;;19.95;15.73;;;10.20;99.90;;;;;;6122469;23;20710;-78
2021/01/01 12:57:52;;;;;;;19.08;15.50;;;10.20;99.90;;;;;;6123155;23;20206;-80
2021/01/01 13:00:20;;;;;;;20.23;17.55;;;10.10;99.90;;;;;;6121547;23;20715;-78
2021/01/01 13:02:46;;;;;;;20.38;16.60;;;10.00;99.90;;;;;;6124189;23;20456;-78
2021/01/01 13:05:12;;;;;;;24.73;19.92;;;10.00;99.90;;;;;;6096043;23;20698;-78
2021/01/01 13:08:43;;;;;;;25.15;18.33;;;9.70;99.90;;;;;;6131350;23;20633;-78
2021/01/01 13:11:14;;;;;;;19.65;16.70;;;9.70;99.90;;;;;;6124263;23;20138;-78
2021/01/01 13:15:29;;;;;;;21.17;16.52;;;9.60;99.90;;;;;;6066265;23;20156;-78
2021/01/01 13:18:22;;;;;;;25.08;20.65;;;9.60;99.90;;;;;;6115958;23;21241;-78
2021/01/01 13:20:48;;;;;;;21.73;18.70;;;9.40;99.90;;;;;;6122667;23;20189;-78
2021/01/01 13:23:13;;;;;;;21.50;16.00;;;9.40;99.90;;;;;;6122526;23;20147;-78
2021/01/01 13:25:39;;;;;;;17.70;15.80;;;9.40;99.90;;;;;;6122651;23;20577;-78
2021/01/01 13:28:05;;;;;;;22.80;16.10;;;9.40;99.90;;;;;;6126040;23;20517;-78
2021/01/01 13:30:31;;;;;;;17.60;15.17;;;9.30;99.90;;;;;;6121547;23;21098;-78
2021/01/01 13:32:57;;;;;;;17.27;14.45;;;9.30;99.90;;;;;;6122655;23;20210;-78
2021/01/01 13:35:23;;;;;;;20.60;13.83;;;9.30;99.90;;;;;;6123082;23;20181;-77
2021/01/01 13:37:49;;;;;;;17.38;14.10;;;9.20;99.90;;;;;;6124029;23;20601;-78
2021/01/01 13:40:20;;;;;;;17.23;14.37;;;9.10;99.90;;;;;;6122853;23;20206;-78
2021/01/01 13:42:52;;;;;;;16.27;13.40;;;9.00;99.90;;;;;;6121790;23;20499;-79
2021/01/01 13:45:21;;;;;;;17.50;14.60;;;9.00;99.90;;;;;;6097191;23;20602;-78
2021/01/01 13:47:47;;;;;;;15.23;13.18;;;8.80;99.90;;;;;;6121058;23;20250;-78
2021/01/01 13:50:18;;;;;;;17.33;13.57;;;8.80;99.90;;;;;;6121523;23;20158;-78
2021/01/01 13:52:44;;;;;;;20.10;14.10;;;8.70;99.90;;;;;;6096815;23;20159;-79
2021/01/01 13:55:10;;;;;;;20.70;14.70;;;8.60;99.90;;;;;;6121626;23;20622;-78
2021/01/01 13:57:36;;;;;;;18.45;14.57;;;8.50;99.90;;;;;;6122696;23;21136;-78
2021/01/01 14:00:03;;;;;;;17.43;14.43;;;8.50;99.90;;;;;;6097448;23;20182;-78
2021/01/01 14:02:37;;;;;;;17.00;14.40;;;8.40;99.90;;;;;;6143842;23;21009;-78
2021/01/01 14:05:03;;;;;;;15.33;12.80;;;8.30;99.90;;;;;;6127970;23;20151;-79
2021/01/01 14:07:28;;;;;;;18.42;13.77;;;8.30;99.90;;;;;;6121510;23;20171;-78
2021/01/01 14:09:54;;;;;;;16.03;12.83;;;8.30;99.90;;;;;;6120736;23;20701;-78
2021/01/01 14:12:21;;;;;;;19.27;13.67;;;8.20;99.90;;;;;;6122034;23;20206;-76
2021/01/01 14:14:47;;;;;;;17.95;14.30;;;8.30;99.90;;;;;;6147612;23;20154;-79
2021/01/01 14:17:13;;;;;;;15.80;13.27;;;8.30;99.90;;;;;;6122502;23;20194;-78
2021/01/01 14:19:41;;;;;;;18.57;14.13;;;8.30;99.90;;;;;;6121557;23;20553;-77
2021/01/01 14:22:08;;;;;;;16.58;13.32;;;8.40;99.90;;;;;;6120235;23;21010;-77
2021/01/01 14:24:34;;;;;;;18.23;13.25;;;8.40;99.90;;;;;;6122134;23;20147;-78
2021/01/01 14:27:00;;;;;;;18.65;12.90;;;8.40;99.90;;;;;;6122780;23;20174;-78
2021/01/01 14:29:26;;;;;;;19.00;13.40;;;8.50;99.90;;;;;;6146080;23;20155;-78
2021/01/01 14:31:51;;;;;;;22.15;17.98;;;8.50;99.90;;;;;;6120819;23;20690;-78
2021/01/01 14:34:17;;;;;;;19.03;15.97;;;8.50;99.90;;;;;;6121933;23;20666;-77
2021/01/01 14:36:43;;;;;;;18.97;15.60;;;8.50;99.90;;;;;;6122133;23;20178;-78
2021/01/01 14:39:12;;;;;;;15.10;13.50;;;8.50;99.90;;;;;;6131775;23;20558;-77
2021/01/01 14:41:38;;;;;;;17.05;14.18;;;8.60;99.90;;;;;;6128957;23;20571;-77
2021/01/01 14:44:08;;;;;;;16.20;13.60;;;8.60;99.90;;;;;;6123789;23;20147;-78
2021/01/01 14:46:36;;;;;;;17.20;14.05;;;8.60;99.90;;;;;;6147162;23;20171;-78
2021/01/01 14:49:02;;;;;;;17.83;14.25;;;8.70;99.90;;;;;;6123397;23;20595;-78
2021/01/01 14:51:28;;;;;;;17.25;14.05;;;8.70;99.90;;;;;;6098095;23;20559;-78
2021/01/01 14:53:54;;;;;;;19.00;14.33;;;8.70;99.90;;;;;;6122905;23;20150;-78
2021/01/01 14:56:34;;;;;;;16.95;13.63;;;8.70;99.90;;;;;;6124034;23;20171;-78
2021/01/01 14:59:32;;;;;;;20.95;18.52;;;8.70;99.90;;;;;;6093964;23;20684;-78
2021/01/01 15:02:36;;;;;;;;;;;;;;;;;;;;;
2021/01/01 15:05:13;;;;;;;16.75;13.43;;;8.60;99.90;;;;;;6125408;23;20128;-78
2021/01/01 15:07:47;;;;;;;18.83;13.65;;;8.70;99.90;;;;;;6122760;23;20171;-78
2021/01/01 15:10:20;;;;;;;13.93;12.05;;;8.70;99.90;;;;;;6124109;23;20248;-77
2021/01/01 15:12:51;;;;;;;16.20;11.90;;;8.70;99.90;;;;;;6126072;23;20509;-77
2021/01/01 15:15:46;;;;;;;14.90;10.38;;;8.70;99.90;;;;;;6125638;23;20282;-78
2021/01/01 15:18:17;;;;;;;13.05;10.40;;;8.70;99.90;;;;;;6129880;23;20135;-77
2021/01/01 15:21:08;;;;;;;15.15;10.70;;;8.70;99.90;;;;;;6147551;23;20225;-79
2021/01/01 15:23:43;;;;;;;13.32;11.27;;;8.70;99.90;;;;;;6123510;23;20159;-79
2021/01/01 15:26:21;;;;;;;16.08;11.15;;;8.70;99.90;;;;;;6125079;23;20511;-78
2021/01/01 15:28:50;;;;;;;13.93;10.55;;;8.70;99.90;;;;;;6125671;23;20143;-77
2021/01/01 15:31:19;;;;;;;15.90;12.23;;;8.60;99.90;;;;;;6125891;23;20147;-78
2021/01/01 15:33:50;;;;;;;13.02;11.50;;;8.60;99.90;;;;;;6103033;23;20914;-78
2021/01/01 15:36:24;;;;;;;14.57;11.13;;;8.60;99.90;;;;;;6124746;23;20183;-77
2021/01/01 15:39:09;;;;;;;12.43;9.57;;;8.50;99.90;;;;;;6125253;23;20636;-78
2021/01/01 15:41:46;;;;;;;14.43;10.48;;;8.50;99.90;;;;;;6130141;23;20173;-79
2021/01/01 15:44:18;;;;;;;15.27;11.90;;;8.50;99.90;;;;;;6126308;23;20479;-78
2021/01/01 15:46:47;;;;;;;12.18;10.68;;;8.40;99.90;;;;;;6148462;23;20173;-78
2021/01/01 15:49:27;;;;;;;11.77;10.18;;;8.40;99.90;;;;;;6123540;23;20127;-79
2021/01/01 15:51:55;;;;;;;13.50;10.55;;;8.30;99.90;;;;;;6098533;23;20194;-77
2021/01/01 15:54:24;;;;;;;13.23;10.17;;;8.20;99.90;;;;;;6122824;23;20629;-79
2021/01/01 15:56:54;;;;;;;12.88;10.52;;;8.10;99.90;;;;;;6126382;23;20665;-78
2021/01/01 15:59:20;;;;;;;11.80;10.57;;;7.90;99.90;;;;;;6098031;23;20602;-78
2021/01/01 16:01:53;;;;;;;13.77;10.93;;;7.90;99.90;;;;;;6122693;23;20201;-78
2021/01/01 16:04:28;;;;;;;13.13;9.80;;;7.80;99.90;;;;;;6122439;23;20151;-78
2021/01/01 16:06:56;;;;;;;12.38;11.02;;;7.70;99.90;;;;;;6098068;23;20230;-78
2021/01/01 16:09:22;;;;;;;15.82;11.10;;;7.60;99.90;;;;;;6099967;23;20610;-78
2021/01/01 16:11:59;;;;;;;11.43;9.95;;;7.50;99.90;;;;;;6126670;23;20151;-78
2021/01/01 16:14:42;;;;;;;12.05;10.38;;;7.50;99.90;;;;;;6124269;23;20132;-79
2021/01/01 16:17:28;;;;;;;10.95;9.25;;;7.40;99.90;;;;;;6123162;23;20166;-77
2021/01/01 16:20:29;;;;;;;14.50;8.82;;;7.30;99.90;;;;;;6101429;23;20186;-78
2021/01/01 16:23:36;;;;;;;13.32;9.63;;;7.20;99.90;;;;;;6124656;23;20242;-78
2021/01/01 16:30:07;;;;;;;12.90;11.18;;;7.00;99.90;;;;;;6122418;23;20217;-79
2021/01/01 16:32:59;;;;;;;9.48;8.48;;;6.80;99.90;;;;;;6086773;23;20139;-78
2021/01/01 16:36:01;;;;;;;;;;;;;;;;;;;;;
2021/01/01 16:38:42;;;;;;;15.07;11.63;;;6.70;99.90;;;;;;6122139;23;20186;-78
2021/01/01 16:41:17;;;;;;;16.77;10.73;;;6.60;99.90;;;;;;6120334;23;20631;-78
2021/01/01 16:43:59;;;;;;;16.08;12.00;;;6.60;99.90;;;;;;6122555;23;20265;-78
2021/01/01 16:46:55;;;;;;;12.35;9.40;;;6.50;99.90;;;;;;6147309;23;20191;-78
2021/01/01 16:49:31;;;;;;;11.60;10.07;;;6.50;99.90;;;;;;6123642;23;20162;-78
2021/01/01 16:52:42;;;;;;;13.13;10.85;;;6.40;99.90;;;;;;6100125;23;20140;-78
2021/01/01 16:55:09;;;;;;;13.20;10.13;;;6.40;99.90;;;;;;6123141;23;20135;-79
2021/01/01 16:57:49;;;;;;;15.50;10.68;;;6.30;99.90;;;;;;6120858;23;20163;-79
2021/01/01 17:00:31;;;;;;;14.10;9.85;;;6.20;99.90;;;;;;6097398;23;20171;-79
2021/01/01 17:03:11;;;;;;;11.95;10.40;;;6.20;99.90;;;;;;6097506;23;20151;-79
2021/01/01 17:06:12;;;;;;;12.77;10.55;;;6.10;99.90;;;;;;6121742;23;20735;-80
2021/01/01 20:02:16;;;;;;;17.83;12.93;;;4.20;99.90;;;;;;6122781;23;20588;-80
2021/01/01 20:13:49;;;;;;;16.70;12.23;;;4.20;99.90;;;;;;6094336;23;20191;-81
2021/01/01 20:16:42;;;;;;;16.02;12.15;;;4.20;99.90;;;;;;6075016;23;20202;-80
2021/01/01 20:19:20;;;;;;;19.88;12.82;;;4.20;99.90;;;;;;6117042;23;20228;-80
2021/01/01 20:26:51;;;;;;;;;;;;;;;;;;;;;
2021/01/01 20:30:15;;;;;;;;;;;;;;;;;;;;;
2021/01/01 20:42:02;;;;;;;;;;;;;;;;;;;;;
2021/01/01 23:10:09;;;;;;;11.95;10.13;;;5.40;99.90;;;;;;6105427;23;20674;-84
